Time;durP1;ratioP1;P1;durP2;ratioP2;P2;SDS_P1;SDS_P2;PMS_P1;PMS_P2;Temp;Humidity;BMP_temperature;BMP_pressure;BME280_temperature;BME280_humidity;BME280_pressure;Samples;Min_cycle;Max_cycle;Signal;HPM_P1;HPM_P2
2023/07/17 00:04:00;;;;;;;9.57;8.10;;;;;;;;;;10066131;28;20047;-67
2023/07/17 00:08:56;;;;;;;9.20;7.72;;;;;;;;;;10067023;28;20074;-66
2023/07/17 00:13:54;;;;;;;10.23;7.97;;;;;;;;;;10065456;28;20047;-67
2023/07/17 00:18:50;;;;;;;8.77;7.90;;;;;;;;;;10068885;28;20419;-66
2023/07/17 00:23:47;;;;;;;8.70;7.78;;;;;;;;;;10060054;28;20048;-67
2023/07/17 00:28:43;;;;;;;9.27;7.80;;;;;;;;;;10065516;28;20077;-67
2023/07/17 00:33:40;;;;;;;8.50;7.63;;;;;;;;;;10069035;28;20777;-65
2023/07/17 00:38:36;;;;;;;8.18;7.28;;;;;;;;;;10083642;28;20038;-65
2023/07/17 00:43:32;;;;;;;8.20;7.40;;;;;;;;;;10074517;28;20054;-67
2023/07/17 00:48:29;;;;;;;8.48;7.53;;;;;;;;;;10072018;28;20070;-67
2023/07/17 00:53:25;;;;;;;9.50;8.00;;;;;;;;;;10086335;28;20043;-65
2023/07/17 00:58:22;;;;;;;11.65;7.75;;;;;;;;;;10070300;28;20803;-66
2023/07/17 01:08:23;;;;;;;7.85;7.10;;;;;;;;;;10923433;23;20142;-66
2023/07/17 01:13:19;;;;;;;7.57;6.88;;;;;;;;;;10128045;28;20454;-67
2023/07/17 01:18:16;;;;;;;8.25;7.47;;;;;;;;;;10143691;28;20047;-67
2023/07/17 01:23:12;;;;;;;8.20;7.13;;;;;;;;;;10150171;28;20666;-66
2023/07/17 01:28:09;;;;;;;9.38;8.35;;;;;;;;;;10150829;28;20058;-65
2023/07/17 01:33:05;;;;;;;8.05;7.28;;;;;;;;;;10149059;28;20545;-66
2023/07/17 01:38:01;;;;;;;9.20;7.50;;;;;;;;;;10136543;28;20049;-66
2023/07/17 01:42:58;;;;;;;8.48;7.68;;;;;;;;;;10151596;28;20797;-68
2023/07/17 01:47:54;;;;;;;9.38;8.38;;;;;;;;;;10136654;28;20050;-70
2023/07/17 01:52:50;;;;;;;10.30;8.45;;;;;;;;;;10158756;28;20074;-68
2023/07/17 01:57:47;;;;;;;8.85;7.95;;;;;;;;;;10148271;28;20042;-68
2023/07/17 02:02:43;;;;;;;9.52;8.15;;;;;;;;;;10146173;28;20498;-66
2023/07/17 02:07:39;;;;;;;11.15;8.50;;;;;;;;;;10145659;28;20085;-67
2023/07/17 02:12:36;;;;;;;9.85;8.30;;;;;;;;;;10150919;28;20128;-68
2023/07/17 02:17:32;;;;;;;9.90;8.90;;;;;;;;;;10140076;28;20137;-68
2023/07/17 02:22:29;;;;;;;9.05;8.25;;;;;;;;;;10144003;28;20094;-68
2023/07/17 02:27:25;;;;;;;10.05;8.85;;;;;;;;;;10145666;28;20046;-68
2023/07/17 02:32:21;;;;;;;10.07;8.65;;;;;;;;;;10141881;28;20070;-68
2023/07/17 02:37:18;;;;;;;9.80;8.90;;;;;;;;;;10151740;28;20043;-67
2023/07/17 02:42:16;;;;;;;10.00;9.10;;;;;;;;;;10157701;28;20047;-67
2023/07/17 02:47:17;;;;;;;10.43;9.43;;;;;;;;;;10139241;28;20046;-66
2023/07/17 02:52:13;;;;;;;9.98;9.25;;;;;;;;;;10141082;28;20528;-66
2023/07/17 02:57:10;;;;;;;11.02;9.90;;;;;;;;;;10136487;28;20054;-66
2023/07/17 03:02:06;;;;;;;11.23;10.25;;;;;;;;;;10138665;28;20078;-66
2023/07/17 03:07:03;;;;;;;11.10;10.00;;;;;;;;;;10131094;28;20045;-66
2023/07/17 03:12:00;;;;;;;10.32;9.35;;;;;;;;;;10143289;28;20070;-66
2023/07/17 03:16:56;;;;;;;9.95;8.95;;;;;;;;;;10136679;28;20528;-66
2023/07/17 03:21:52;;;;;;;10.05;9.20;;;;;;;;;;10141648;28;20046;-65
2023/07/17 03:26:49;;;;;;;9.75;8.85;;;;;;;;;;10132142;28;20042;-66
2023/07/17 03:31:45;;;;;;;8.57;7.78;;;;;;;;;;10130096;28;20042;-68
2023/07/17 03:36:41;;;;;;;9.95;9.05;;;;;;;;;;10136324;28;20552;-68
2023/07/17 03:41:38;;;;;;;9.00;8.10;;;;;;;;;;10140962;28;20046;-68
2023/07/17 03:46:34;;;;;;;9.60;8.60;;;;;;;;;;10133042;28;20074;-69
2023/07/17 03:51:31;;;;;;;9.13;8.10;;;;;;;;;;10138718;28;20395;-67
2023/07/17 03:56:28;;;;;;;9.23;8.35;;;;;;;;;;10137715;28;20399;-68
2023/07/17 04:01:26;;;;;;;9.63;8.73;;;;;;;;;;10132640;28;20042;-68
2023/07/17 04:06:23;;;;;;;9.52;8.55;;;;;;;;;;10127914;28;20597;-69
2023/07/17 04:11:20;;;;;;;10.02;8.77;;;;;;;;;;10138749;28;20096;-68
2023/07/17 04:16:19;;;;;;;9.73;8.23;;;;;;;;;;10143507;28;20034;-69
2023/07/17 04:21:16;;;;;;;10.38;8.57;;;;;;;;;;10134726;28;20046;-68
2023/07/17 04:26:13;;;;;;;10.10;8.30;;;;;;;;;;10126712;28;20502;-68
2023/07/17 04:31:09;;;;;;;9.00;8.10;;;;;;;;;;10141396;28;20445;-69
2023/07/17 04:36:07;;;;;;;8.48;7.70;;;;;;;;;;10138197;28;20039;-68
2023/07/17 04:41:04;;;;;;;10.98;8.18;;;;;;;;;;10136761;28;20763;-68
2023/07/17 04:46:00;;;;;;;10.55;7.65;;;;;;;;;;10136575;28;20100;-68
2023/07/17 04:50:57;;;;;;;9.82;8.35;;;;;;;;;;10144095;28;20042;-68
2023/07/17 05:00:59;;;;;;;12.00;8.70;;;;;;;;;;10214370;23;20062;-68
2023/07/17 05:11:07;;;;;;;10.80;8.30;;;;;;;;;;4685861;26;20157;-68
2023/07/17 05:16:04;;;;;;;10.13;8.45;;;;;;;;;;10138474;28;20047;-68
2023/07/17 05:21:01;;;;;;;10.40;8.35;;;;;;;;;;10136081;28;20545;-68
2023/07/17 05:25:58;;;;;;;9.50;8.55;;;;;;;;;;10139886;28;20038;-68
2023/07/17 05:30:55;;;;;;;9.98;8.57;;;;;;;;;;10143261;28;20532;-69
2023/07/17 05:36:20;;;;;;;9.18;8.38;;;;;;;;;;10208924;23;20057;-68
2023/07/17 05:41:17;;;;;;;11.98;8.95;;;;;;;;;;10125338;28;20043;-68
2023/07/17 05:46:14;;;;;;;9.73;8.43;;;;;;;;;;10118690;23;20039;-68
2023/07/17 05:51:10;;;;;;;10.27;8.85;;;;;;;;;;10122909;28;20126;-68
2023/07/17 05:56:07;;;;;;;10.30;8.65;;;;;;;;;;10126405;23;20050;-70
2023/07/17 06:01:03;;;;;;;9.68;8.75;;;;;;;;;;10108991;28;20742;-68
2023/07/17 06:05:59;;;;;;;13.18;9.48;;;;;;;;;;10109316;28;20055;-69
2023/07/17 06:10:56;;;;;;;10.13;9.13;;;;;;;;;;10106194;28;20050;-69
2023/07/17 06:20:57;;;;;;;13.98;9.48;;;;;;;;;;10075297;26;20070;-69
2023/07/17 06:25:54;;;;;;;11.50;9.32;;;;;;;;;;10144362;28;20664;-68
2023/07/17 06:30:51;;;;;;;13.60;8.40;;;;;;;;;;10151589;28;20073;-68
2023/07/17 06:40:51;;;;;;;9.55;8.50;;;;;;;;;;10040511;28;20066;-70
2023/07/17 06:45:47;;;;;;;11.25;9.13;;;;;;;;;;10061612;28;20047;-70
2023/07/17 06:50:44;;;;;;;17.83;9.13;;;;;;;;;;10071976;28;20047;-70
2023/07/17 07:00:58;;;;;;;13.38;8.60;;;;;;;;;;10135479;23;20570;-70
2023/07/17 07:11:01;;;;;;;14.43;8.52;;;;;;;;;;10328465;23;20529;-70
2023/07/17 07:15:57;;;;;;;10.15;8.77;;;;;;;;;;10137133;28;20272;-70
2023/07/17 07:20:53;;;;;;;13.88;8.55;;;;;;;;;;10113256;28;20141;-70
2023/07/17 07:31:04;;;;;;;10.70;8.33;;;;;;;;;;9040123;26;20043;-70
2023/07/17 07:41:12;;;;;;;10.83;8.60;;;;;;;;;;10223056;22;20062;-70
2023/07/17 07:46:09;;;;;;;9.68;8.63;;;;;;;;;;10103602;28;20889;-70
2023/07/17 07:51:05;;;;;;;9.95;8.95;;;;;;;;;;10087817;28;20053;-70
2023/07/17 08:01:33;;;;;;;11.73;9.80;;;;;;;;;;2688651;26;20050;-70
2023/07/17 08:06:30;;;;;;;12.57;8.88;;;;;;;;;;10092605;28;20056;-70
2023/07/17 08:11:26;;;;;;;9.48;8.32;;;;;;;;;;10105145;28;20077;-71
2023/07/17 08:26:44;;;;;;;8.75;7.95;;;;;;;;;;10179867;28;20547;-70
2023/07/17 08:31:40;;;;;;;9.60;7.90;;;;;;;;;;10180084;28;20054;-70
2023/07/17 08:37:03;;;;;;;9.48;8.57;;;;;;;;;;10467861;23;20607;-70
2023/07/17 08:41:59;;;;;;;12.00;8.20;;;;;;;;;;10141951;28;20054;-70
2023/07/17 08:46:56;;;;;;;8.52;7.75;;;;;;;;;;10339810;23;20055;-70
2023/07/17 08:51:54;;;;;;;8.48;7.57;;;;;;;;;;10146168;28;20073;-70
2023/07/17 09:02:04;;;;;;;8.35;7.15;;;;;;;;;;9983573;26;20391;-70
2023/07/17 09:07:06;;;;;;;9.07;7.40;;;;;;;;;;10147984;28;20169;-70
2023/07/17 09:12:07;;;;;;;7.90;7.20;;;;;;;;;;10152387;28;20466;-70
2023/07/17 09:17:04;;;;;;;8.20;7.40;;;;;;;;;;10149343;28;20093;-70
2023/07/17 09:22:04;;;;;;;8.90;7.63;;;;;;;;;;10146181;28;20141;-70
2023/07/17 09:27:07;;;;;;;9.48;8.10;;;;;;;;;;10159857;23;20343;-70
2023/07/17 09:32:13;;;;;;;8.75;7.85;;;;;;;;;;10158913;28;20085;-70
2023/07/17 09:37:10;;;;;;;8.73;7.75;;;;;;;;;;10141348;28;20050;-70
2023/07/17 09:42:21;;;;;;;10.15;7.70;;;;;;;;;;10166241;28;20194;-70
2023/07/17 09:52:23;;;;;;;8.48;7.50;;;;;;;;;;10419576;23;20070;-70
2023/07/17 09:57:25;;;;;;;8.43;7.72;;;;;;;;;;10143032;28;20086;-70
2023/07/17 10:02:22;;;;;;;9.75;8.25;;;;;;;;;;10143139;28;20537;-70
2023/07/17 10:07:19;;;;;;;10.70;8.25;;;;;;;;;;10137331;28;20063;-70
2023/07/17 10:12:16;;;;;;;8.32;7.63;;;;;;;;;;10139704;28;20061;-70
2023/07/17 10:17:42;;;;;;;10.02;8.30;;;;;;;;;;10121836;28;20411;-70
2023/07/17 10:22:45;;;;;;;9.20;8.30;;;;;;;;;;10126223;28;20042;-70
2023/07/17 10:27:44;;;;;;;9.20;8.20;;;;;;;;;;10264769;23;20050;-70
2023/07/17 10:32:41;;;;;;;10.13;8.02;;;;;;;;;;10155501;28;20083;-70
2023/07/17 10:37:37;;;;;;;10.80;8.40;;;;;;;;;;10167473;28;20121;-70
2023/07/17 10:42:34;;;;;;;9.05;8.07;;;;;;;;;;10155631;28;20084;-70
2023/07/17 10:47:30;;;;;;;11.55;7.43;;;;;;;;;;10152026;28;20513;-70
2023/07/17 10:52:31;;;;;;;9.10;7.20;;;;;;;;;;10157238;28;20078;-70
2023/07/17 11:02:45;;;;;;;8.43;7.63;;;;;;;;;;10218155;28;20049;-70
2023/07/17 11:07:42;;;;;;;8.65;7.13;;;;;;;;;;10247953;28;20049;-70
2023/07/17 11:12:39;;;;;;;10.70;8.20;;;;;;;;;;10266413;28;20122;-70
2023/07/17 11:17:35;;;;;;;8.02;6.88;;;;;;;;;;10309770;23;20492;-70
2023/07/17 11:22:32;;;;;;;8.07;6.97;;;;;;;;;;10271916;28;20044;-70
2023/07/17 11:27:28;;;;;;;8.82;7.10;;;;;;;;;;10283857;28;20044;-71
2023/07/17 11:32:27;;;;;;;8.80;6.95;;;;;;;;;;10307396;28;20076;-70
2023/07/17 11:37:34;;;;;;;12.48;7.97;;;;;;;;;;10304962;28;20504;-70
2023/07/17 11:42:50;;;;;;;9.57;7.20;;;;;;;;;;10299923;28;20691;-70
2023/07/17 11:47:47;;;;;;;10.73;7.95;;;;;;;;;;10303490;28;20044;-70
2023/07/17 11:52:43;;;;;;;10.55;8.45;;;;;;;;;;10315160;28;20083;-71
2023/07/17 11:57:48;;;;;;;11.65;8.50;;;;;;;;;;10309779;28;20045;-69
2023/07/17 12:02:54;;;;;;;9.20;7.43;;;;;;;;;;10293423;28;20056;-69
2023/07/17 12:07:50;;;;;;;6.10;5.50;;;;;;;;;;10305323;28;20051;-70
2023/07/17 12:12:47;;;;;;;8.85;5.80;;;;;;;;;;10290573;28;20049;-70
2023/07/17 12:17:43;;;;;;;6.07;5.40;;;;;;;;;;10322132;28;20040;-70
2023/07/17 12:22:39;;;;;;;8.07;6.35;;;;;;;;;;10323852;28;20055;-69
2023/07/17 12:27:36;;;;;;;7.07;5.75;;;;;;;;;;10309619;28;20049;-69
2023/07/17 12:32:32;;;;;;;5.90;5.25;;;;;;;;;;10305393;28;20396;-70
2023/07/17 12:37:35;;;;;;;5.45;4.95;;;;;;;;;;10329737;22;20053;-70
2023/07/17 12:43:09;;;;;;;6.13;5.60;;;;;;;;;;10252623;28;20102;-70
2023/07/17 12:48:06;;;;;;;6.47;5.88;;;;;;;;;;10271624;28;20056;-70
2023/07/17 12:53:03;;;;;;;5.97;5.43;;;;;;;;;;10284705;28;20045;-70
2023/07/17 12:57:59;;;;;;;5.88;5.38;;;;;;;;;;10320740;28;20083;-70
2023/07/17 13:02:56;;;;;;;6.93;6.22;;;;;;;;;;10328119;28;20051;-70
2023/07/17 13:07:52;;;;;;;7.30;6.57;;;;;;;;;;10336650;28;20131;-70
2023/07/17 13:12:48;;;;;;;7.10;5.90;;;;;;;;;;10324904;28;20110;-70
2023/07/17 13:17:45;;;;;;;7.47;6.78;;;;;;;;;;10337835;28;20059;-70
2023/07/17 13:22:44;;;;;;;8.48;7.60;;;;;;;;;;10322788;28;20821;-70
2023/07/17 13:28:23;;;;;;;8.32;6.63;;;;;;;;;;11001559;22;20548;-70
2023/07/17 13:33:33;;;;;;;7.40;6.43;;;;;;;;;;10179671;28;20045;-70
2023/07/17 13:43:41;;;;;;;6.30;5.70;;;;;;;;;;10270850;23;20076;-70
2023/07/17 13:48:37;;;;;;;6.68;6.10;;;;;;;;;;10478848;22;20460;-70
2023/07/17 13:53:34;;;;;;;7.82;7.03;;;;;;;;;;10229618;28;20065;-70
2023/07/17 13:58:32;;;;;;;6.90;6.15;;;;;;;;;;10269215;28;20098;-70
2023/07/17 14:03:28;;;;;;;7.22;6.53;;;;;;;;;;10312761;28;20079;-70
2023/07/17 14:08:28;;;;;;;7.28;6.55;;;;;;;;;;10290253;28;20094;-69
2023/07/17 14:13:24;;;;;;;6.47;5.88;;;;;;;;;;10287303;28;20040;-70
2023/07/17 14:18:20;;;;;;;7.28;5.78;;;;;;;;;;10313380;28;20102;-69
2023/07/17 14:23:17;;;;;;;11.05;6.45;;;;;;;;;;10312295;28;20049;-70
2023/07/17 14:28:13;;;;;;;8.93;7.13;;;;;;;;;;10310406;28;20055;-71
2023/07/17 14:33:09;;;;;;;7.20;6.55;;;;;;;;;;10328893;28;20044;-70
2023/07/17 14:43:09;;;;;;;10.32;6.55;;;;;;;;;;10350483;28;20067;-71
2023/07/17 14:48:05;;;;;;;7.20;6.35;;;;;;;;;;10359637;23;20057;-71
2023/07/17 14:53:02;;;;;;;10.60;7.15;;;;;;;;;;10243843;28;20772;-71
2023/07/17 14:57:59;;;;;;;8.55;7.75;;;;;;;;;;10249082;23;20583;-71
2023/07/17 15:02:56;;;;;;;9.88;7.43;;;;;;;;;;10275406;28;20108;-71
2023/07/17 15:07:52;;;;;;;9.38;7.32;;;;;;;;;;10456530;22;20096;-71
2023/07/17 15:12:48;;;;;;;11.52;7.40;;;;;;;;;;10263970;28;20052;-72
2023/07/17 15:17:45;;;;;;;10.48;6.97;;;;;;;;;;10258818;28;20052;-72
2023/07/17 15:22:43;;;;;;;8.45;7.70;;;;;;;;;;10268397;28;20072;-70
2023/07/17 15:27:40;;;;;;;8.25;6.60;;;;;;;;;;10267932;28;20586;-70
2023/07/17 15:32:36;;;;;;;7.80;7.10;;;;;;;;;;10271229;28;20092;-70
2023/07/17 15:42:38;;;;;;;7.35;6.65;;;;;;;;;;10159890;26;20072;-70
2023/07/17 15:58:44;;;;;;;8.05;7.30;;;;;;;;;;10343033;22;20113;-70
2023/07/17 16:03:40;;;;;;;8.13;7.28;;;;;;;;;;10342554;28;20054;-70
2023/07/17 16:08:37;;;;;;;8.27;7.47;;;;;;;;;;10368907;28;20490;-70
2023/07/17 16:13:33;;;;;;;7.57;6.85;;;;;;;;;;10378382;27;20044;-70
2023/07/17 16:18:29;;;;;;;8.40;7.80;;;;;;;;;;10392125;27;20043;-70
2023/07/17 16:23:26;;;;;;;8.40;7.80;;;;;;;;;;10387548;28;20058;-70
2023/07/17 16:28:22;;;;;;;8.60;7.80;;;;;;;;;;10370047;28;20044;-70
2023/07/17 16:33:18;;;;;;;9.75;9.02;;;;;;;;;;10378829;28;20075;-70
2023/07/17 16:38:15;;;;;;;9.20;8.48;;;;;;;;;;10676212;22;20048;-70
2023/07/17 16:43:11;;;;;;;10.63;9.63;;;;;;;;;;10301502;28;20561;-69
2023/07/17 16:48:39;;;;;;;;;;;;;;;;;;;;;
2023/07/17 16:53:38;;;;;;;12.27;11.10;;;;;;;;;;10377551;28;20086;-71
2023/07/17 17:03:46;;;;;;;12.68;11.48;;;;;;;;;;10494786;22;20048;-70
2023/07/17 17:08:43;;;;;;;11.75;10.85;;;;;;;;;;10389229;28;20471;-70
2023/07/17 17:13:39;;;;;;;12.38;11.48;;;;;;;;;;10373771;27;20682;-70
2023/07/17 17:18:37;;;;;;;11.18;10.30;;;;;;;;;;10388546;28;20055;-70
2023/07/17 17:23:33;;;;;;;11.57;10.50;;;;;;;;;;10389926;27;20056;-70
2023/07/17 17:28:29;;;;;;;10.02;9.23;;;;;;;;;;10396483;28;20560;-70
2023/07/17 17:33:26;;;;;;;10.25;9.35;;;;;;;;;;10386728;28;20074;-70
2023/07/17 17:49:41;;;;;;;;;;;;;;;;;;;;;
2023/07/17 17:54:55;;;;;;;8.40;7.75;;;;;;;;;;10367390;27;20051;-70
2023/07/17 17:59:59;;;;;;;9.48;8.68;;;;;;;;;;10392696;28;20143;-70
2023/07/17 18:04:55;;;;;;;9.85;9.00;;;;;;;;;;10379396;27;20059;-70
2023/07/17 18:09:52;;;;;;;10.35;9.25;;;;;;;;;;10374119;28;20063;-70
2023/07/17 18:14:48;;;;;;;10.60;9.55;;;;;;;;;;10386428;28;20043;-70
2023/07/17 18:25:04;;;;;;;9.95;9.05;;;;;;;;;;10383539;22;20048;-70
2023/07/17 18:30:00;;;;;;;8.93;8.23;;;;;;;;;;10392300;27;20051;-70
2023/07/17 18:34:56;;;;;;;9.23;8.60;;;;;;;;;;10393956;28;20567;-70
2023/07/17 18:39:52;;;;;;;8.48;7.88;;;;;;;;;;10476823;22;20099;-70
2023/07/17 18:44:49;;;;;;;9.70;8.82;;;;;;;;;;10259345;28;20073;-70
2023/07/17 18:49:45;;;;;;;9.05;8.25;;;;;;;;;;10266342;28;20075;-70
2023/07/17 18:54:41;;;;;;;10.02;9.13;;;;;;;;;;10257581;28;20104;-70
2023/07/17 18:59:38;;;;;;;9.13;8.27;;;;;;;;;;10257066;28;20091;-70
2023/07/17 19:04:34;;;;;;;9.32;8.40;;;;;;;;;;10254515;28;20045;-70
2023/07/17 19:09:30;;;;;;;8.57;7.72;;;;;;;;;;10252637;28;20056;-70
2023/07/17 19:14:29;;;;;;;9.73;8.73;;;;;;;;;;10261294;28;20098;-70
2023/07/17 19:19:26;;;;;;;8.10;7.40;;;;;;;;;;10256299;28;20098;-70
2023/07/17 19:24:23;;;;;;;9.35;8.43;;;;;;;;;;10233353;28;20288;-70
2023/07/17 19:29:19;;;;;;;8.85;7.95;;;;;;;;;;10350886;22;20083;-70
2023/07/17 19:34:15;;;;;;;9.07;8.20;;;;;;;;;;10308836;28;20046;-68
2023/07/17 19:39:12;;;;;;;9.40;8.32;;;;;;;;;;10353347;28;20506;-70
2023/07/17 19:44:08;;;;;;;11.07;9.95;;;;;;;;;;10353163;28;20044;-70
2023/07/17 19:49:04;;;;;;;10.30;9.07;;;;;;;;;;10354507;22;20059;-70
2023/07/17 19:54:01;;;;;;;9.65;8.77;;;;;;;;;;10220311;28;20078;-69
2023/07/17 19:58:57;;;;;;;10.88;9.05;;;;;;;;;;10210462;28;20080;-68
2023/07/17 20:03:54;;;;;;;11.55;9.75;;;;;;;;;;10224587;28;20061;-68
2023/07/17 20:08:51;;;;;;;10.43;9.52;;;;;;;;;;10225726;28;20476;-68
2023/07/17 20:13:50;;;;;;;10.32;9.32;;;;;;;;;;10227517;28;20083;-67
2023/07/17 20:18:46;;;;;;;10.10;9.20;;;;;;;;;;10235476;28;20091;-68
2023/07/17 20:23:43;;;;;;;13.77;10.77;;;;;;;;;;10228165;28;20076;-69
2023/07/17 20:28:39;;;;;;;11.88;10.73;;;;;;;;;;10239276;28;20077;-70
2023/07/17 20:33:36;;;;;;;12.18;10.38;;;;;;;;;;10232855;28;20093;-70
2023/07/17 20:38:32;;;;;;;15.50;11.32;;;;;;;;;;10241094;28;20135;-69
2023/07/17 20:43:28;;;;;;;13.23;11.40;;;;;;;;;;10214516;28;20050;-69
2023/07/17 20:48:25;;;;;;;11.52;9.63;;;;;;;;;;10246862;28;20076;-69
2023/07/17 20:53:21;;;;;;;9.95;9.05;;;;;;;;;;10256568;28;20048;-69
2023/07/17 20:58:18;;;;;;;10.60;9.68;;;;;;;;;;10239525;28;20045;-70
2023/07/17 21:03:15;;;;;;;11.93;10.30;;;;;;;;;;10240819;28;20135;-69
2023/07/17 21:08:13;;;;;;;11.23;10.23;;;;;;;;;;10230064;28;20480;-69
2023/07/17 21:13:09;;;;;;;10.13;9.20;;;;;;;;;;10243442;28;20080;-69
2023/07/17 21:18:05;;;;;;;9.30;8.40;;;;;;;;;;10252758;28;20535;-67
2023/07/17 21:23:02;;;;;;;9.27;8.38;;;;;;;;;;10233392;28;20208;-67
2023/07/17 21:27:58;;;;;;;11.73;9.05;;;;;;;;;;10236525;28;20103;-67
2023/07/17 21:32:58;;;;;;;9.38;8.57;;;;;;;;;;10251350;28;20752;-67
2023/07/17 21:37:54;;;;;;;8.70;7.80;;;;;;;;;;10241674;28;20049;-69
2023/07/17 21:42:51;;;;;;;10.68;8.48;;;;;;;;;;10247718;28;20714;-68
2023/07/17 21:47:47;;;;;;;9.02;8.20;;;;;;;;;;10236291;28;20432;-69
2023/07/17 21:52:45;;;;;;;9.65;8.73;;;;;;;;;;10259383;28;20504;-68
2023/07/17 21:57:42;;;;;;;10.18;9.13;;;;;;;;;;10252375;28;20048;-68
2023/07/17 22:02:38;;;;;;;9.38;8.45;;;;;;;;;;10242318;28;20501;-71
2023/07/17 22:07:35;;;;;;;9.52;8.73;;;;;;;;;;10240709;28;20053;-70
2023/07/17 22:12:31;;;;;;;12.80;9.73;;;;;;;;;;10239343;28;20065;-70
2023/07/17 22:17:28;;;;;;;9.85;8.90;;;;;;;;;;10236113;28;20065;-71
2023/07/17 22:22:24;;;;;;;9.68;8.10;;;;;;;;;;10240852;28;20136;-70
2023/07/17 22:27:21;;;;;;;9.27;8.48;;;;;;;;;;10238160;28;20076;-69
2023/07/17 22:32:17;;;;;;;11.10;8.55;;;;;;;;;;10247239;28;20044;-69
2023/07/17 22:37:17;;;;;;;9.30;7.85;;;;;;;;;;10240369;28;20072;-69
2023/07/17 22:42:16;;;;;;;9.73;8.73;;;;;;;;;;10235225;28;20072;-70
2023/07/17 22:47:13;;;;;;;9.40;8.60;;;;;;;;;;10246577;28;20072;-69
2023/07/17 22:52:09;;;;;;;9.82;8.82;;;;;;;;;;10236761;28;20048;-69
2023/07/17 22:57:05;;;;;;;10.15;9.20;;;;;;;;;;10229723;28;20064;-69
2023/07/17 23:02:01;;;;;;;8.48;7.68;;;;;;;;;;10245592;28;20123;-68
2023/07/17 23:06:58;;;;;;;9.43;8.60;;;;;;;;;;10236889;28;20091;-69
2023/07/17 23:11:55;;;;;;;8.98;8.25;;;;;;;;;;10238494;28;20100;-68
2023/07/17 23:16:52;;;;;;;9.20;8.50;;;;;;;;;;10232757;28;20073;-68
2023/07/17 23:21:48;;;;;;;7.95;7.35;;;;;;;;;;10237325;28;20052;-68
2023/07/17 23:26:45;;;;;;;8.15;7.55;;;;;;;;;;10232273;28;20042;-67
2023/07/17 23:31:41;;;;;;;9.88;8.85;;;;;;;;;;10249526;28;20049;-68
2023/07/17 23:36:37;;;;;;;9.02;8.23;;;;;;;;;;10241515;28;20052;-67
2023/07/17 23:41:33;;;;;;;9.88;8.98;;;;;;;;;;10232573;28;20665;-67
2023/07/17 23:46:30;;;;;;;10.48;9.48;;;;;;;;;;10228270;28;20105;-67
2023/07/17 23:51:26;;;;;;;10.13;9.13;;;;;;;;;;10244420;28;20053;-67
2023/07/17 23:56:23;;;;;;;10.60;9.45;;;;;;;;;;10253349;28;20099;-67
